Parkman, Ohio
Current Conditions -  °F | °C
As of 8:22 AM on Thursday 18 Dec 2014 (Local Time) from KPOV Reporting Station
NA  
Wind Chill: 21°   Ceiling: NA
Heat Index: 28°   Visibility: 10mi
Dew Point: 21°   Wind: 7mph
Humidity: 74%   Direction: 260°W
Pressure: 30.18"   Gusts: NA
Location:  41.37°N, 81.06°W
Report Text: KPOV 181322Z AUTO 26006KT 10SM M02/M06 A3018 RMK AO2 T10221062
Loading
Personal Weather Stations






























Interactive Weather Map New forecast layout! Learn more

10-Day Weather Forecast

Advertisements
Track Severe Weather on mobile